• Join FlightAware (Why Join?)
  • Login
  • US Flag GB Flag 
20:57 EDT


 

Airport Tracker/Info


-or-


 

Live Flight TrackerFlight Track Log ✈ BOE272 ✈ 25-Mar-2013 ✈ KPAE - KPAE

Flight Track Log - Related Links

Times and Time Zones

All times are in EDT time to prevent confusion due to time zone crossing. See the BOE272 flight status page for this flight to view local times or setup timezone preferences in your user account.

Time Position Orientation Groundspeed Altitude Reporting Facility
EDT Latitude Longitude Course Direction KTS MPH feet Rate Location/Type
15:11 47.9247 -122.2861 358° North 173 199 1,800  Level Seattle Center
15:12 47.9675 -122.2881 358° North 186 214 3,600 2,160 Climbing Seattle Center
15:12 47.9864 -122.3014 335° Northwest 240 276 4,300 2,160 Climbing Seattle Center
15:13 47.9867 -122.3697 270° West 273 314 5,800 3,000 Climbing Seattle Center
15:14 47.9464 -122.4625 237° Southwest 274 315 9,700 3,120 Climbing Seattle Center
15:15 47.9006 -122.5644 236° Southwest 300 345 12,200 2,580 Climbing Seattle Center
15:16 47.8550 -122.6883 241° Southwest 358 412 15,000 3,000 Climbing Seattle Center
15:17 47.8906 -122.8556 288° West 365 420 18,300 3,000 Climbing Seattle Center
15:18 47.9258 -122.9986 290° West 373 429 21,200 2,520 Climbing Seattle Center
15:19 47.9603 -123.1492 289° West 385 443 23,500 2,100 Climbing Seattle Center
15:20 47.9969 -123.3072 289° West 403 464 25,500 1,320 Climbing Seattle Center
15:21 48.0356 -123.4703 290° West 419 482 26,300 1,860 Climbing Seattle Center
15:22 48.0786 -123.6528 290° West 427 491 29,400 1,860 Climbing Seattle Center
15:23 48.1167 -123.8214 289° West 432 497 30,200 1,080 Climbing Seattle Center
15:24 48.1583 -124.0006 289° West 453 521 31,600 1,320 Climbing Seattle Center
15:25 48.1997 -124.1836 289° West 463 533 32,900 1,320 Climbing Seattle Center
15:26 48.2225 -124.3744 280° West 473 544 34,300 1,260 Climbing Seattle Center
15:27 48.2369 -124.5606 277° West 479 551 35,500 1,320 Climbing Seattle Center
15:28 48.3478 -124.6258 339° North 480 552 37,000 1,320 Climbing Seattle Center
15:29 48.4069 -124.8192 295° West 470 541 38,200 960 Climbing Seattle Center
15:30 48.3431 -124.9664 237° Southwest 464 534 39,000 360 Climbing Seattle Center
15:31 48.2172 -124.9706 181° South 480 552 39,000 -60 Level Seattle Center
15:32 48.0950 -124.8894 156° South 489 563 38,900  Descending Seattle Center
15:33 47.9719 -124.8075 156° South 489 563 39,000  Climbing Seattle Center
15:34 47.8478 -124.7267 156° South 491 565 39,000 -60 Level Seattle Center
15:35 47.6992 -124.6306 156° South 489 563 38,900  Descending Seattle Center
15:36 47.5753 -124.5500 156° South 489 563 39,000  Climbing Seattle Center
15:37 47.4528 -124.4725 157° South 484 557 38,900 -60 Descending Seattle Center
15:38 47.3308 -124.3936 156° South 480 552 38,900  Level Seattle Center
15:39 47.2097 -124.3164 157° South 477 549 38,900  Level Seattle Center
15:40 47.0875 -124.2400 157° South 480 552 39,000  Climbing Seattle Center
15:42 46.9644 -124.1636 157° South 481 554 38,900  Descending Seattle Center
15:43 46.8367 -124.1103 164° South 480 552 39,000  Climbing Seattle Center
15:44 46.7069 -124.0675 167° South 478 550 39,000  Level Seattle Center
15:45 46.5769 -124.0233 167° South 479 551 39,000  Level Seattle Center
15:46 46.4461 -123.9794 167° South 483 556 39,000 -60 Level Seattle Center
15:47 46.3017 -123.9294 167° South 480 552 38,900  Descending Seattle Center
15:48 46.1719 -123.8881 168° South 479 551 39,000  Climbing Seattle Center
15:49 46.0419 -123.8944 182° South 470 541 38,900 -60 Descending Seattle Center
15:50 45.9125 -123.9108 185° South 470 541 38,900  Level Seattle Center
15:51 45.7822 -123.9269 185° South 472 543 39,000  Climbing Seattle Center
15:52 45.6522 -123.9406 184° South 471 542 39,000  Level Seattle Center
15:53 45.5231 -123.9550 184° South 469 540 39,000 -60 Level Seattle Center
15:54 45.3925 -123.9689 184° South 472 543 38,900  Descending Seattle Center
15:55 45.2375 -123.9881 185° South 470 541 39,000  Climbing Seattle Center
15:56 45.1092 -124.0028 185° South 471 542 39,000 -60 Level Seattle Center
15:57 44.9794 -124.0186 185° South 475 547 38,900 -60 Descending Seattle Center
15:58 44.8542 -124.0331 185° South 462 532 38,900  Level Seattle Center
15:59 44.7261 -124.0469 184° South 469 540 39,000  Climbing Seattle Center
16:00 44.6003 -124.0261 173° South 485 558 38,900  Descending Seattle Center
16:01 44.5647 -123.8522 106° East 514 592 39,000  Climbing Seattle Center
16:02 44.6717 -123.7364 38° Northeast 517 595 38,900  Descending Seattle Center
16:03 44.8142 -123.7264 North 511 588 39,000  Climbing Seattle Center
16:04 44.9592 -123.7403 356° North 508 585 39,000 -60 Level Seattle Center
16:05 45.1042 -123.7589 355° North 512 589 38,900  Descending Seattle Center
16:06 45.2458 -123.7742 356° North 510 587 39,000  Climbing Seattle Center
16:07 45.3892 -123.7911 355° North 513 590 39,000 -120 Level Seattle Center
16:08 45.5597 -123.8117 355° North 514 592 38,800  Descending Seattle Center
16:09 45.6983 -123.8275 355° North 501 577 39,000 60 Climbing Seattle Center
16:10 45.8344 -123.8439 355° North 492 566 39,000 -60 Level Seattle Center
16:11 45.9686 -123.8592 355° North 487 560 38,900  Descending Seattle Center
16:12 46.1025 -123.8756 355° North 485 558 39,000  Climbing Seattle Center
16:13 46.2350 -123.9031 352° North 483 556 39,000  Level Seattle Center
16:14 46.3653 -123.9528 345° North 484 557 39,000  Level Seattle Center
16:15 46.5081 -123.9994 347° North 485 558 39,000  Level Seattle Center
16:16 46.6378 -124.0439 347° North 482 555 39,000  Level Seattle Center
16:17 46.7658 -124.0872 347° North 474 545 39,000  Level Seattle Center
16:18 46.8908 -124.1311 347° North 466 536 39,000 -60 Level Seattle Center
16:19 47.0153 -124.1744 347° North 461 531 38,900  Descending Seattle Center
16:20 47.1406 -124.2181 347° North 463 533 39,000  Climbing Seattle Center
16:21 47.2653 -124.2600 347° North 462 532 39,000  Level Seattle Center
16:22 47.3903 -124.2614 360° North 465 535 39,000  Level Seattle Center
16:23 47.4389 -124.0933 67° East 470 541 39,000  Level Seattle Center
16:24 47.4467 -123.8744 87° East 476 548 39,000  Level Seattle Center
16:25 47.4531 -123.6786 87° East 482 555 39,000  Level Seattle Center
16:26 47.4586 -123.4842 88° East 482 555 39,000 -300 Level Seattle Center
16:27 47.4950 -123.2922 74° East 489 563 38,400 -840 Descending Seattle Center
16:28 47.5469 -123.0983 68° East 517 595 37,400 -1,920 Descending Seattle Center
16:29 47.6622 -123.0092 28° Northeast 475 547 34,500 -3,900 Descending Seattle Center
16:30 47.7814 -122.9742 11° North 444 511 29,500 -4,080 Descending Seattle Center
16:31 47.9114 -122.9725 360° North 391 450 26,300 -3,600 Descending Seattle Center
16:32 48.0044 -122.9750 359° North 345 397 22,200 -3,840 Descending Seattle Center
16:33 48.0989 -122.9978 351° North 353 406 18,600 -3,300 Descending Seattle Center
16:34 48.1389 -123.1031 300° West 299 344 15,600 -1,800 Descending Seattle Center
16:35 48.1517 -123.2181 279° West 283 326 15,000 -300 Descending Seattle Center
16:36 48.1642 -123.3278 280° West 246 283 15,000 -60 Level Seattle Center
16:37 48.1725 -123.4006 280° West 189 217 14,900  Descending Seattle Center
16:38 48.1792 -123.4614 279° West 153 176 15,000  Climbing Seattle Center
16:39 48.1858 -123.5233 279° West 151 174 15,000  Level Seattle Center
16:40 48.1925 -123.5897 279° West 157 181 15,000  Level Seattle Center
16:41 48.2008 -123.6667 279° West 181 208 15,000 -60 Level Seattle Center
16:42 48.2061 -123.7269 278° West 157 181 14,900  Descending Seattle Center
16:43 48.2133 -123.8019 278° West 176 203 15,000  Climbing Seattle Center
16:45 48.2189 -123.9100 274° West 235 270 15,000  Level Seattle Center
16:46 48.2247 -124.0133 275° West 252 290 15,000  Level Seattle Center
16:47 48.2311 -124.1156 275° West 249 287 15,000  Level Seattle Center
16:48 48.2392 -124.2183 277° West 248 285 15,000  Level Seattle Center
16:49 48.2528 -124.3219 281° West 250 288 15,000  Level Seattle Center
16:50 48.2692 -124.4467 281° West 252 290 15,000  Level Seattle Center
16:51 48.2833 -124.5506 282° West 253 291 15,000  Level Seattle Center
16:52 48.2972 -124.6561 281° West 253 291 15,000  Level Seattle Center
16:53 48.2919 -124.7650 266° West 257 296 15,000 -60 Level Seattle Center
16:54 48.2942 -124.8722 272° West 266 306 14,900 -60 Descending Seattle Center
16:55 48.3342 -124.8186 42° Northeast 275 316 14,900  Level Seattle Center
16:56 48.3175 -124.7128 103° East 287 330 15,000  Climbing Seattle Center
16:57 48.2853 -124.5178 104° East 273 314 15,000  Level Seattle Center
16:58 48.2653 -124.3983 104° East 296 341 15,000  Level Seattle Center
16:59 48.2461 -124.2800 104° East 295 339 15,000  Level Seattle Center
17:00 48.2314 -124.1514 100° East 304 350 15,000 -60 Level Seattle Center
17:01 48.2064 -123.9781 102° East 344 396 14,900  Descending Seattle Center
17:02 48.1814 -123.8161 103° East 392 451 15,000 -540 Climbing Seattle Center
17:03 48.1617 -123.6878 103° East 398 458 14,000 -1,920 Descending Seattle Center
17:04 48.1344 -123.4981 102° East 392 451 11,100 -1,800 Descending Seattle Center
17:05 48.1122 -123.3544 103° East 363 418 10,000 -720 Descending Seattle Center
17:06 48.0922 -123.2267 103° East 313 360 9,700 -660 Descending Seattle Center
17:07 48.0756 -123.1175 103° East 289 333 8,700 -1,140 Descending Seattle Center
17:09 48.0586 -123.0075 103° East 277 319 7,500 -1,500 Descending Seattle Center
17:09 48.0500 -122.9611 106° East 267 307 6,800 -1,380 Descending Seattle Center
17:09 48.0417 -122.9092 103° East 265 305 6,400 -1,140 Descending Seattle Center
17:10 48.0392 -122.8083 92° East 258 297 5,100 -720 Descending Seattle Center
17:11 48.0619 -122.7031 72° East 245 282 5,000 -60 Descending Seattle Center
17:12 48.0844 -122.6047 71° East 243 280 5,000 -180 Level Seattle Center
17:13 48.0953 -122.5058 81° East 226 260 4,700 -540 Descending Seattle Center
17:15 48.0869 -122.4008 97° East 220 253 3,800 -900 Descending Seattle Center
17:15 48.0828 -122.3403 96° East 179 206 3,000 -480 Descending Seattle Center
17:16 48.0528 -122.2908 132° Southeast 183 211 3,000 -360 Level Seattle Center
17:17 48.0053 -122.2875 177° South 150 173 2,300 -780 Descending Seattle Center
17:18 47.9650 -122.2867 179° South 142 163 1,500 -720 Descending Seattle Center
17:20 47.9194 -122.2853 179° South 145 167 800 -600 Descending Seattle Center
17:22 47.9070 -122.2816 142° Southeast  Level Estimated